createdAt,value
2022-10-22T00:01:39.153Z,2.10
2022-10-22T00:04:05.890Z,1.97
2022-10-22T00:06:33.283Z,2.40
2022-10-22T00:09:00.252Z,2.27
2022-10-22T00:11:27.091Z,2.00
2022-10-22T00:13:53.882Z,2.23
2022-10-22T00:16:20.491Z,2.23
2022-10-22T00:18:47.118Z,1.73
2022-10-22T00:21:14.068Z,3.03
2022-10-22T00:23:42.508Z,1.80
2022-10-22T00:26:09.413Z,2.00
2022-10-22T00:28:36.040Z,1.90
2022-10-22T00:31:02.885Z,2.20
2022-10-22T00:33:30.074Z,2.93
2022-10-22T00:35:57.253Z,2.00
2022-10-22T00:38:24.041Z,2.00
2022-10-22T00:40:50.958Z,2.37
2022-10-22T00:43:19.438Z,2.10
2022-10-22T00:45:46.663Z,2.10
2022-10-22T00:48:23.534Z,2.27
2022-10-22T00:51:00.900Z,2.93
2022-10-22T00:53:37.792Z,1.97
2022-10-22T00:56:05.554Z,2.40
2022-10-22T00:58:36.340Z,2.00
2022-10-22T01:01:04.702Z,1.90
2022-10-22T01:03:32.445Z,1.70
2022-10-22T01:06:03.161Z,2.50
2022-10-22T01:08:48.723Z,2.20
2022-10-22T01:11:18.115Z,2.00
2022-10-22T01:14:01.644Z,2.03
2022-10-22T01:16:31.389Z,1.90
2022-10-22T01:19:16.032Z,2.30
2022-10-22T01:21:52.453Z,1.70
2022-10-22T01:24:21.971Z,1.93
2022-10-22T01:27:07.457Z,1.83
2022-10-22T01:29:37.293Z,2.13
2022-10-22T01:32:16.263Z,2.17
2022-10-22T01:34:46.864Z,1.83
2022-10-22T01:37:15.253Z,1.90
2022-10-22T01:39:46.144Z,2.30
2022-10-22T01:42:13.899Z,1.47
2022-10-22T01:44:40.964Z,1.80
2022-10-22T01:47:27.458Z,1.73
2022-10-22T01:50:23.563Z,1.33
2022-10-22T01:53:11.353Z,1.70
2022-10-22T01:56:17.363Z,2.03
2022-10-22T01:59:06.837Z,1.73
2022-10-22T02:01:49.659Z,1.80
2022-10-22T02:04:22.167Z,2.00
2022-10-22T02:06:51.757Z,1.90
2022-10-22T02:09:21.620Z,1.77
2022-10-22T02:11:50.358Z,1.60
2022-10-22T02:14:18.625Z,1.90
2022-10-22T02:16:48.516Z,1.97
2022-10-22T02:19:25.345Z,1.77
2022-10-22T02:21:53.573Z,1.90
2022-10-22T02:24:21.424Z,2.03
2022-10-22T02:27:08.709Z,2.20
2022-10-22T02:29:55.686Z,1.77
2022-10-22T02:32:29.230Z,2.60
2022-10-22T02:34:56.716Z,1.73
2022-10-22T02:37:24.661Z,1.93
2022-10-22T02:39:52.452Z,2.03
2022-10-22T02:42:19.304Z,1.90
2022-10-22T02:44:45.870Z,2.03
2022-10-22T02:47:12.582Z,2.00
2022-10-22T02:49:39.168Z,2.00
2022-10-22T02:52:05.732Z,1.87
2022-10-22T02:54:32.426Z,2.00
2022-10-22T02:56:58.997Z,2.13
2022-10-22T02:59:26.005Z,1.70
2022-10-22T03:01:52.571Z,2.50
2022-10-22T03:04:19.139Z,2.10
2022-10-22T03:06:48.548Z,1.93
2022-10-22T03:09:15.229Z,1.90
2022-10-22T03:11:41.825Z,2.03
2022-10-22T03:14:08.423Z,1.80
2022-10-22T03:16:35.022Z,2.13
2022-10-22T03:19:01.933Z,1.80
2022-10-22T03:21:57.248Z,2.03
2022-10-22T03:24:28.578Z,2.03
2022-10-22T03:26:55.214Z,1.70
2022-10-22T03:29:25.763Z,1.53
2022-10-22T03:31:53.386Z,1.67
2022-10-22T03:34:20.520Z,2.67
2022-10-22T03:36:48.514Z,1.60
2022-10-22T03:39:17.384Z,1.70
2022-10-22T03:41:44.382Z,1.90
2022-10-22T03:44:11.644Z,1.60
2022-10-22T03:46:38.401Z,1.73
2022-10-22T03:49:04.938Z,1.67
2022-10-22T03:51:31.666Z,1.73
2022-10-22T03:53:58.246Z,1.63
2022-10-22T03:56:25.165Z,1.70
2022-10-22T03:58:51.785Z,1.60
2022-10-22T04:01:18.475Z,1.73
2022-10-22T04:03:45.075Z,2.63
2022-10-22T04:06:13.053Z,1.57
2022-10-22T04:08:41.251Z,1.90
2022-10-22T04:11:08.189Z,2.77
2022-10-22T04:13:35.256Z,7.33
2022-10-22T04:16:10.416Z,9.23
2022-10-22T04:18:37.610Z,7.57
2022-10-22T04:21:04.770Z,5.50
2022-10-22T04:23:31.410Z,3.80
2022-10-22T04:26:07.151Z,3.33
2022-10-22T04:28:35.134Z,3.93
2022-10-22T04:31:10.764Z,2.00
2022-10-22T04:33:37.862Z,2.07
2022-10-22T04:36:16.567Z,1.80
2022-10-22T04:38:44.693Z,1.60
2022-10-22T04:41:23.136Z,1.57
2022-10-22T04:43:50.406Z,1.73
2022-10-22T04:46:18.062Z,2.30
2022-10-22T04:48:45.902Z,1.80
2022-10-22T04:51:15.013Z,1.87
2022-10-22T04:53:41.741Z,2.07
2022-10-22T04:56:10.729Z,1.67
2022-10-22T04:58:37.321Z,1.83
2022-10-22T05:01:31.375Z,1.80
2022-10-22T05:04:00.246Z,1.50
2022-10-22T05:06:28.531Z,2.27
2022-10-22T05:08:59.028Z,1.67
2022-10-22T05:11:33.252Z,1.60
2022-10-22T05:14:01.398Z,1.33
2022-10-22T05:16:29.414Z,1.50
2022-10-22T05:18:57.473Z,1.13
2022-10-22T05:21:24.111Z,2.03
2022-10-22T05:23:51.297Z,1.40
2022-10-22T05:26:21.310Z,1.80
2022-10-22T05:28:49.825Z,1.60
2022-10-22T05:31:17.102Z,1.70
2022-10-22T05:33:44.862Z,1.50
2022-10-22T05:36:14.989Z,1.90
2022-10-22T05:38:41.558Z,1.43
2022-10-22T05:41:10.837Z,1.63
2022-10-22T05:43:38.144Z,1.60
2022-10-22T05:46:12.235Z,1.73
2022-10-22T05:48:38.963Z,1.50
2022-10-22T05:51:11.472Z,1.60
2022-10-22T05:53:41.372Z,1.77
2022-10-22T05:56:16.986Z,1.40
2022-10-22T05:58:44.572Z,1.60
2022-10-22T06:01:27.332Z,1.60
2022-10-22T06:03:55.795Z,1.77
2022-10-22T06:06:30.186Z,1.53
2022-10-22T06:09:00.223Z,2.30
2022-10-22T06:11:28.833Z,2.10
2022-10-22T06:13:57.895Z,1.57
2022-10-22T06:16:24.502Z,1.80
2022-10-22T06:18:51.074Z,1.70
2022-10-22T06:21:17.756Z,2.13
2022-10-22T06:23:44.499Z,1.73
2022-10-22T06:26:11.607Z,2.20
2022-10-22T06:28:38.718Z,2.10
2022-10-22T06:31:06.125Z,2.47
2022-10-22T06:33:34.703Z,2.30
2022-10-22T06:36:09.620Z,2.33
2022-10-22T06:38:36.251Z,2.00
2022-10-22T06:41:05.352Z,1.90
2022-10-22T06:43:32.005Z,2.17
2022-10-22T06:46:03.599Z,2.00
2022-10-22T06:48:30.737Z,1.87
2022-10-22T06:51:01.518Z,2.10
2022-10-22T06:53:29.164Z,1.93
2022-10-22T06:55:55.762Z,2.07
2022-10-22T06:58:22.401Z,1.80
2022-10-22T07:00:49.025Z,2.30
2022-10-22T07:03:15.962Z,2.10
2022-10-22T07:05:42.796Z,2.10
2022-10-22T07:08:09.359Z,3.33
2022-10-22T07:10:35.906Z,5.10
2022-10-22T07:13:02.478Z,18.03
2022-10-22T07:15:29.084Z,25.47
2022-10-22T07:17:55.682Z,22.47
2022-10-22T07:20:22.287Z,5.70
2022-10-22T07:22:48.895Z,7.17
2022-10-22T07:25:15.576Z,4.37
2022-10-22T07:27:42.440Z,4.87
2022-10-22T07:30:09.593Z,2.60
2022-10-22T07:32:36.996Z,2.80
2022-10-22T07:35:04.636Z,2.57
2022-10-22T07:37:31.237Z,2.63
2022-10-22T07:40:02.744Z,2.03
2022-10-22T07:45:02.344Z,2.97
2022-10-22T07:47:28.945Z,2.57
2022-10-22T07:49:55.521Z,2.73
2022-10-22T07:52:22.188Z,2.90
2022-10-22T07:54:48.735Z,2.63
2022-10-22T07:57:15.333Z,2.37
2022-10-22T07:59:41.886Z,2.60
2022-10-22T08:02:10.288Z,2.17
2022-10-22T08:04:36.901Z,2.57
2022-10-22T08:07:03.576Z,2.37
2022-10-22T08:09:30.201Z,2.57
2022-10-22T08:11:57.056Z,1.97
2022-10-22T08:14:23.701Z,2.40
2022-10-22T08:16:50.242Z,2.83
2022-10-22T08:19:21.144Z,2.63
2022-10-22T08:21:48.334Z,2.10
2022-10-22T08:24:15.164Z,2.47
2022-10-22T08:26:42.625Z,2.70
2022-10-22T08:29:09.181Z,2.50
2022-10-22T08:31:35.735Z,2.77
2022-10-22T08:34:02.384Z,2.40
2022-10-22T08:36:28.982Z,3.20
2022-10-22T08:38:55.534Z,2.90
2022-10-22T08:41:23.544Z,2.47
2022-10-22T08:44:01.848Z,2.53
2022-10-22T08:46:40.749Z,2.70
2022-10-22T08:49:24.326Z,2.87
2022-10-22T08:51:51.224Z,3.37
2022-10-22T08:54:42.237Z,2.90
2022-10-22T08:57:08.959Z,3.90
2022-10-22T08:59:46.468Z,3.90
2022-10-22T09:02:47.168Z,3.70
2022-10-22T09:05:38.441Z,3.83
2022-10-22T09:08:09.484Z,3.70
2022-10-22T09:10:38.125Z,4.53
2022-10-22T09:13:04.848Z,4.10
2022-10-22T09:15:31.601Z,4.13
2022-10-22T09:18:35.046Z,4.77
2022-10-22T09:21:35.682Z,4.30
2022-10-22T09:24:16.665Z,3.87
2022-10-22T09:26:43.240Z,3.83
2022-10-22T09:29:19.553Z,4.53
2022-10-22T09:31:46.451Z,4.00
2022-10-22T09:34:19.305Z,4.47
2022-10-22T09:36:45.907Z,3.57
2022-10-22T09:39:24.954Z,4.10
2022-10-22T09:41:51.562Z,3.07
2022-10-22T09:44:19.370Z,2.93
2022-10-22T09:46:46.251Z,2.83
2022-10-22T09:49:17.596Z,3.00
2022-10-22T09:51:56.040Z,2.20
2022-10-22T09:54:38.424Z,2.67
2022-10-22T09:57:17.488Z,2.40
2022-10-22T09:59:47.976Z,2.63
2022-10-22T10:02:38.203Z,2.53
2022-10-22T10:05:06.420Z,2.37
2022-10-22T10:07:36.009Z,2.03
2022-10-22T10:10:03.236Z,2.70
2022-10-22T10:12:32.620Z,2.73
2022-10-22T10:15:06.545Z,3.00
2022-10-22T10:17:44.429Z,2.40
2022-10-22T10:20:35.742Z,2.30
2022-10-22T10:23:23.116Z,1.77
2022-10-22T10:26:43.136Z,2.80
2022-10-22T10:29:16.317Z,1.80
2022-10-22T10:31:52.860Z,1.70
2022-10-22T10:34:46.692Z,2.27
2022-10-22T10:37:22.265Z,2.10
2022-10-22T10:40:04.962Z,1.80
2022-10-22T10:42:41.170Z,1.47
2022-10-22T10:45:32.247Z,1.80
2022-10-22T10:48:01.925Z,1.67
2022-10-22T10:50:38.310Z,2.47
2022-10-22T10:53:36.743Z,2.43
2022-10-22T10:56:39.187Z,2.17
2022-10-22T11:00:02.201Z,2.93
2022-10-22T11:03:05.629Z,1.93
2022-10-22T11:05:36.147Z,2.37
2022-10-22T11:08:31.666Z,2.30
2022-10-22T11:11:03.770Z,1.80
2022-10-22T11:13:35.165Z,2.23
2022-10-22T11:16:07.747Z,2.60
2022-10-22T11:19:18.516Z,2.17
2022-10-22T11:22:24.537Z,1.97
2022-10-22T11:25:13.739Z,2.43
2022-10-22T11:28:11.248Z,2.10
2022-10-22T11:30:40.757Z,2.20
2022-10-22T11:33:12.658Z,2.07
2022-10-22T11:35:42.366Z,2.70
2022-10-22T11:38:14.933Z,3.07
2022-10-22T11:40:48.987Z,2.43
2022-10-22T11:43:35.749Z,3.20
2022-10-22T11:46:25.574Z,3.10
2022-10-22T11:49:03.064Z,2.87
2022-10-22T11:51:38.785Z,2.60
2022-10-22T11:54:29.681Z,3.03
2022-10-22T11:57:14.845Z,2.57
2022-10-22T11:59:47.566Z,3.00
2022-10-22T12:02:27.554Z,3.17
2022-10-22T12:05:15.917Z,3.77
2022-10-22T12:07:54.490Z,3.30
2022-10-22T12:10:22.697Z,3.53
2022-10-22T12:13:05.182Z,3.83
2022-10-22T12:15:31.840Z,3.70
2022-10-22T12:18:05.438Z,3.40
2022-10-22T12:20:32.587Z,3.07
2022-10-22T12:22:59.960Z,3.77
2022-10-22T12:25:35.468Z,3.00
2022-10-22T12:28:02.796Z,3.07
2022-10-22T12:30:36.814Z,3.13
2022-10-22T12:33:06.686Z,3.23
2022-10-22T12:35:44.352Z,3.20
2022-10-22T12:38:16.703Z,3.23
2022-10-22T12:40:47.490Z,4.33
2022-10-22T12:43:23.804Z,3.37
2022-10-22T12:45:51.567Z,2.57
2022-10-22T12:48:38.767Z,2.50
2022-10-22T12:51:08.099Z,2.30
2022-10-22T12:53:37.733Z,3.13
2022-10-22T12:56:17.998Z,2.70
2022-10-22T12:58:55.106Z,2.77
2022-10-22T13:01:22.224Z,2.20
2022-10-22T13:03:51.275Z,2.20
2022-10-22T13:06:21.466Z,2.13
2022-10-22T13:09:00.157Z,2.20
2022-10-22T13:11:51.761Z,2.00
2022-10-22T13:14:21.200Z,2.23
2022-10-22T13:17:16.910Z,1.93
2022-10-22T13:19:52.583Z,1.73
2022-10-22T13:22:31.444Z,2.10
2022-10-22T13:25:11.630Z,2.77
2022-10-22T13:27:47.118Z,2.30
2022-10-22T13:30:22.347Z,2.70
2022-10-22T13:32:58.940Z,2.47
2022-10-22T13:35:32.144Z,1.50
2022-10-22T13:38:00.013Z,2.20
2022-10-22T13:40:27.041Z,1.80
2022-10-22T13:42:53.730Z,1.80
2022-10-22T13:45:20.502Z,1.90
2022-10-22T13:47:53.133Z,1.97
2022-10-22T13:50:21.169Z,2.07
2022-10-22T13:52:52.652Z,2.43
2022-10-22T13:55:30.544Z,2.03
2022-10-22T13:58:10.158Z,1.90
2022-10-22T14:00:40.363Z,1.80
2022-10-22T14:03:10.998Z,2.30
2022-10-22T14:05:38.000Z,2.27
2022-10-22T14:08:13.024Z,1.77
2022-10-22T14:10:39.665Z,1.63
2022-10-22T14:13:08.086Z,1.90
2022-10-22T14:15:35.022Z,1.73
2022-10-22T14:18:01.845Z,2.70
2022-10-22T14:20:31.129Z,6.60
2022-10-22T14:23:02.934Z,7.10
2022-10-22T14:25:31.396Z,3.90
2022-10-22T14:27:57.980Z,4.60
2022-10-22T14:30:26.077Z,4.17
2022-10-22T14:32:52.707Z,4.40
2022-10-22T14:35:22.270Z,5.23
2022-10-22T14:37:48.972Z,2.60
2022-10-22T14:40:19.231Z,2.60
2022-10-22T14:42:48.088Z,2.40
2022-10-22T14:45:23.400Z,3.47
2022-10-22T14:47:51.066Z,4.50
2022-10-22T14:50:18.669Z,3.17
2022-10-22T14:52:45.814Z,4.03
2022-10-22T14:55:14.197Z,4.20
2022-10-22T14:57:41.615Z,3.13
2022-10-22T15:00:18.872Z,2.50
2022-10-22T15:02:47.172Z,2.03
2022-10-22T15:05:14.357Z,4.30
2022-10-22T15:07:41.672Z,2.37
2022-10-22T15:10:09.150Z,3.67
2022-10-22T15:12:36.006Z,2.83
2022-10-22T15:15:02.852Z,2.50
2022-10-22T15:17:29.424Z,3.50
2022-10-22T15:19:59.541Z,3.00
2022-10-22T15:22:28.307Z,3.03
2022-10-22T15:24:54.861Z,3.03
2022-10-22T15:27:21.870Z,2.53
2022-10-22T15:29:48.882Z,3.90
2022-10-22T15:32:15.471Z,4.90
2022-10-22T15:34:42.112Z,3.17
2022-10-22T15:37:12.072Z,2.43
2022-10-22T15:39:42.273Z,3.37
2022-10-22T15:42:09.869Z,2.50
2022-10-22T15:44:36.816Z,2.07
2022-10-22T15:47:04.926Z,1.77
2022-10-22T15:49:32.185Z,2.20
2022-10-22T15:51:58.748Z,1.63
2022-10-22T15:54:28.479Z,5.17
2022-10-22T15:56:56.727Z,4.20
2022-10-22T15:59:24.120Z,2.30
2022-10-22T16:01:51.176Z,1.73
2022-10-22T16:04:18.082Z,3.13
2022-10-22T16:06:47.647Z,2.70
2022-10-22T16:09:17.725Z,2.10
2022-10-22T16:11:44.799Z,1.97
2022-10-22T16:14:13.172Z,1.87
2022-10-22T16:16:43.816Z,2.77
2022-10-22T16:19:15.431Z,1.47
2022-10-22T16:21:42.102Z,2.07
2022-10-22T16:24:09.335Z,1.97
2022-10-22T16:26:36.864Z,2.23
2022-10-22T16:29:05.198Z,2.80
2022-10-22T16:31:32.184Z,2.10
2022-10-22T16:33:59.197Z,2.30
2022-10-22T16:36:26.490Z,1.87
2022-10-22T16:38:53.496Z,2.10
2022-10-22T16:41:22.441Z,1.80
2022-10-22T16:43:51.120Z,1.97
2022-10-22T16:46:19.837Z,1.47
2022-10-22T16:48:51.532Z,1.90
2022-10-22T16:51:20.638Z,2.10
2022-10-22T16:53:47.666Z,1.60
2022-10-22T16:56:16.592Z,2.00
2022-10-22T16:58:49.168Z,2.20
2022-10-22T17:01:18.079Z,2.73
2022-10-22T17:03:45.502Z,1.67
2022-10-22T17:06:12.161Z,2.20
2022-10-22T17:08:40.042Z,2.13
2022-10-22T17:11:08.881Z,1.60
2022-10-22T17:13:36.321Z,1.70
2022-10-22T17:16:08.700Z,1.60
2022-10-22T17:18:37.061Z,2.50
2022-10-22T17:21:08.674Z,2.27
2022-10-22T17:23:35.263Z,2.30
2022-10-22T17:26:07.280Z,2.93
2022-10-22T17:28:35.844Z,2.40
2022-10-22T17:31:07.314Z,1.63
2022-10-22T17:33:35.570Z,1.97
2022-10-22T17:36:05.222Z,1.70
2022-10-22T17:38:31.797Z,2.27
2022-10-22T17:40:59.868Z,2.07
2022-10-22T17:43:28.268Z,1.63
2022-10-22T17:46:06.880Z,2.40
2022-10-22T17:48:34.320Z,2.40
2022-10-22T17:51:01.360Z,1.70
2022-10-22T17:53:28.498Z,2.00
2022-10-22T17:56:07.040Z,1.73
2022-10-22T17:58:34.055Z,1.77
2022-10-22T18:01:00.723Z,1.27
2022-10-22T18:03:27.863Z,1.23
2022-10-22T18:05:55.279Z,1.30
2022-10-22T18:08:24.029Z,1.27
2022-10-22T18:10:50.630Z,2.23
2022-10-22T18:13:17.316Z,1.27
2022-10-22T18:15:43.908Z,2.10
2022-10-22T18:18:10.890Z,1.50
2022-10-22T18:20:37.440Z,1.63
2022-10-22T18:23:04.679Z,1.53
2022-10-22T18:25:31.833Z,1.83
2022-10-22T18:27:58.959Z,2.47
2022-10-22T18:30:25.992Z,2.10
2022-10-22T18:32:52.576Z,2.33
2022-10-22T18:35:19.112Z,2.40
2022-10-22T18:37:45.729Z,2.30
2022-10-22T18:40:14.554Z,2.00
2022-10-22T18:42:41.907Z,2.50
2022-10-22T18:45:09.233Z,2.07
2022-10-22T18:47:40.906Z,2.30
2022-10-22T18:50:08.704Z,2.17
2022-10-22T18:52:35.325Z,2.20
2022-10-22T18:55:02.278Z,1.63
2022-10-22T18:57:28.850Z,1.63
2022-10-22T18:59:58.585Z,2.00
2022-10-22T19:02:26.437Z,1.90
2022-10-22T19:04:53.001Z,2.17
2022-10-22T19:07:19.564Z,1.80
2022-10-22T19:09:46.165Z,1.80
2022-10-22T19:12:14.967Z,1.77
2022-10-22T19:14:42.645Z,1.90
2022-10-22T19:17:09.672Z,1.60
2022-10-22T19:19:36.485Z,2.07
2022-10-22T19:22:03.172Z,1.80
2022-10-22T19:24:29.812Z,1.90
2022-10-22T19:26:56.422Z,1.70
2022-10-22T19:29:23.231Z,1.83
2022-10-22T19:31:50.944Z,1.63
2022-10-22T19:34:18.177Z,1.73
2022-10-22T19:36:45.211Z,1.70
2022-10-22T19:39:15.761Z,1.90
2022-10-22T19:41:42.356Z,1.97
2022-10-22T19:44:09.780Z,1.50
2022-10-22T19:46:36.679Z,2.10
2022-10-22T19:49:04.416Z,1.90
2022-10-22T19:51:33.351Z,1.77
2022-10-22T19:54:06.890Z,1.80
2022-10-22T19:56:34.657Z,1.70
2022-10-22T19:59:01.893Z,1.83
2022-10-22T20:01:28.973Z,1.90
2022-10-22T20:03:55.733Z,2.03
2022-10-22T20:06:23.051Z,1.63
2022-10-22T20:08:53.730Z,1.90
2022-10-22T20:11:25.339Z,2.13
2022-10-22T20:13:52.644Z,1.63
2022-10-22T20:16:23.058Z,1.70
2022-10-22T20:18:50.428Z,2.03
2022-10-22T20:21:19.216Z,1.67
2022-10-22T20:23:46.764Z,1.90
2022-10-22T20:26:13.418Z,1.63
2022-10-22T20:28:40.260Z,2.00
2022-10-22T20:31:12.186Z,1.73
2022-10-22T20:33:39.049Z,1.87
2022-10-22T20:36:09.098Z,2.50
2022-10-22T20:41:10.610Z,2.13
2022-10-22T20:43:37.292Z,2.00
2022-10-22T20:46:04.776Z,1.93
2022-10-22T20:48:32.242Z,2.03
2022-10-22T20:51:00.070Z,2.30
2022-10-22T20:53:28.336Z,2.20
2022-10-22T20:55:58.709Z,2.10
2022-10-22T20:58:27.118Z,2.07
2022-10-22T21:00:55.039Z,2.43
2022-10-22T21:03:21.913Z,2.10
2022-10-22T21:05:49.147Z,1.90
2022-10-22T21:08:17.490Z,1.90
2022-10-22T21:10:48.882Z,1.77
2022-10-22T21:13:16.604Z,2.73
2022-10-22T21:15:43.612Z,2.00
2022-10-22T21:18:10.302Z,2.47
2022-10-22T21:20:39.025Z,2.40
2022-10-22T21:23:05.712Z,2.13
2022-10-22T21:25:32.797Z,2.07
2022-10-22T21:27:59.798Z,1.73
2022-10-22T21:30:26.422Z,2.30
2022-10-22T21:32:55.851Z,1.80
2022-10-22T21:35:22.929Z,2.07
2022-10-22T21:37:49.919Z,1.80
2022-10-22T21:40:16.650Z,2.13
2022-10-22T21:42:43.222Z,2.60
2022-10-22T21:45:13.177Z,2.10
2022-10-22T21:47:41.818Z,2.60
2022-10-22T21:50:08.923Z,2.13
2022-10-22T21:52:35.745Z,2.93
2022-10-22T21:55:02.329Z,2.30
2022-10-22T21:57:28.959Z,2.93
2022-10-22T21:59:56.457Z,2.40
2022-10-22T22:02:23.834Z,1.90
2022-10-22T22:04:54.596Z,2.50
2022-10-22T22:07:22.122Z,2.77
2022-10-22T22:09:51.575Z,2.80
2022-10-22T22:12:18.895Z,3.00
2022-10-22T22:14:45.500Z,2.53
2022-10-22T22:17:12.323Z,2.53
2022-10-22T22:19:39.109Z,2.73
2022-10-22T22:22:05.707Z,2.57
2022-10-22T22:24:32.324Z,2.53
2022-10-22T22:26:58.881Z,2.67
2022-10-22T22:29:25.448Z,2.93
2022-10-22T22:31:52.024Z,2.57
2022-10-22T22:34:18.561Z,3.20
2022-10-22T22:36:47.925Z,2.80
2022-10-22T22:39:17.791Z,3.00
2022-10-22T22:41:44.628Z,2.57
2022-10-22T22:44:12.076Z,2.87
2022-10-22T22:46:39.151Z,3.07
2022-10-22T22:49:06.157Z,2.50
2022-10-22T22:51:33.177Z,2.67
2022-10-22T22:54:00.463Z,2.37
2022-10-22T22:56:29.404Z,2.90
2022-10-22T22:58:56.708Z,2.53
2022-10-22T23:01:25.302Z,3.03
2022-10-22T23:04:05.204Z,2.10
2022-10-22T23:06:37.040Z,2.60
2022-10-22T23:09:09.358Z,2.77
2022-10-22T23:11:36.487Z,2.33
2022-10-22T23:14:05.145Z,2.03
2022-10-22T23:16:34.890Z,2.47
2022-10-22T23:19:01.965Z,2.47
2022-10-22T23:21:32.118Z,2.53
2022-10-22T23:24:01.087Z,2.50
2022-10-22T23:26:30.484Z,2.70
2022-10-22T23:29:08.619Z,2.63
2022-10-22T23:31:35.613Z,2.67
2022-10-22T23:34:02.176Z,2.40
2022-10-22T23:36:29.183Z,2.10
2022-10-22T23:38:55.835Z,2.80
2022-10-22T23:41:23.565Z,2.70
2022-10-22T23:43:50.860Z,2.03
2022-10-22T23:46:17.492Z,3.07
2022-10-22T23:48:44.532Z,2.47
2022-10-22T23:51:14.856Z,2.30
2022-10-22T23:53:42.300Z,2.30
2022-10-22T23:56:17.378Z,2.67
2022-10-22T23:58:44.775Z,2.83
